sensor_id;sensor_type;location;lat;lon;timestamp;P1;durP1;ratioP1;P2;durP2;ratioP2
31652;SDS011;18261;53.648;9.910;2024-03-02T00:00:07;37.78;;;21.83;;
31652;SDS011;18261;53.648;9.910;2024-03-02T00:02:42;43.28;;;23.15;;
31652;SDS011;18261;53.648;9.910;2024-03-02T00:05:12;41.50;;;22.90;;
31652;SDS011;18261;53.648;9.910;2024-03-02T00:07:52;44.10;;;23.23;;
31652;SDS011;18261;53.648;9.910;2024-03-02T00:10:23;45.42;;;23.35;;
31652;SDS011;18261;53.648;9.910;2024-03-02T00:12:54;40.35;;;22.08;;
31652;SDS011;18261;53.648;9.910;2024-03-02T00:18:12;38.10;;;21.50;;
31652;SDS011;18261;53.648;9.910;2024-03-02T00:20:52;43.33;;;22.33;;
31652;SDS011;18261;53.648;9.910;2024-03-02T00:23:21;43.65;;;23.33;;
31652;SDS011;18261;53.648;9.910;2024-03-02T00:25:49;40.05;;;23.33;;
31652;SDS011;18261;53.648;9.910;2024-03-02T00:28:25;48.55;;;23.90;;
31652;SDS011;18261;53.648;9.910;2024-03-02T00:30:58;41.90;;;23.85;;
31652;SDS011;18261;53.648;9.910;2024-03-02T00:33:27;41.20;;;23.52;;
31652;SDS011;18261;53.648;9.910;2024-03-02T00:36:02;39.78;;;21.42;;
31652;SDS011;18261;53.648;9.910;2024-03-02T00:38:32;41.65;;;22.30;;
31652;SDS011;18261;53.648;9.910;2024-03-02T00:40:59;41.83;;;23.50;;
31652;SDS011;18261;53.648;9.910;2024-03-02T00:46:18;49.03;;;23.85;;
31652;SDS011;18261;53.648;9.910;2024-03-02T00:48:47;46.38;;;22.90;;
31652;SDS011;18261;53.648;9.910;2024-03-02T00:51:16;43.15;;;24.17;;
31652;SDS011;18261;53.648;9.910;2024-03-02T00:53:42;38.92;;;22.10;;
31652;SDS011;18261;53.648;9.910;2024-03-02T00:56:09;44.03;;;21.98;;
31652;SDS011;18261;53.648;9.910;2024-03-02T00:58:35;40.80;;;22.92;;
31652;SDS011;18261;53.648;9.910;2024-03-02T01:01:01;39.40;;;22.23;;
31652;SDS011;18261;53.648;9.910;2024-03-02T01:03:27;46.25;;;24.38;;
31652;SDS011;18261;53.648;9.910;2024-03-02T01:05:52;47.58;;;24.50;;
31652;SDS011;18261;53.648;9.910;2024-03-02T01:08:18;44.85;;;24.05;;
31652;SDS011;18261;53.648;9.910;2024-03-02T01:10:44;46.80;;;23.23;;
31652;SDS011;18261;53.648;9.910;2024-03-02T01:13:09;42.65;;;23.75;;
31652;SDS011;18261;53.648;9.910;2024-03-02T01:15:35;46.95;;;24.83;;
31652;SDS011;18261;53.648;9.910;2024-03-02T01:18:01;48.85;;;26.33;;
31652;SDS011;18261;53.648;9.910;2024-03-02T01:20:26;44.15;;;25.88;;
31652;SDS011;18261;53.648;9.910;2024-03-02T01:22:52;46.60;;;26.35;;
31652;SDS011;18261;53.648;9.910;2024-03-02T01:25:18;48.83;;;26.15;;
31652;SDS011;18261;53.648;9.910;2024-03-02T01:27:43;48.30;;;26.75;;
31652;SDS011;18261;53.648;9.910;2024-03-02T01:30:09;52.30;;;26.92;;
31652;SDS011;18261;53.648;9.910;2024-03-02T01:32:37;55.55;;;27.40;;
31652;SDS011;18261;53.648;9.910;2024-03-02T01:35:03;52.85;;;28.73;;
31652;SDS011;18261;53.648;9.910;2024-03-02T01:37:29;55.08;;;27.95;;
31652;SDS011;18261;53.648;9.910;2024-03-02T01:39:55;55.38;;;29.92;;
31652;SDS011;18261;53.648;9.910;2024-03-02T01:42:20;58.15;;;30.15;;
31652;SDS011;18261;53.648;9.910;2024-03-02T01:44:47;58.67;;;29.73;;
31652;SDS011;18261;53.648;9.910;2024-03-02T01:47:13;58.78;;;30.17;;
31652;SDS011;18261;53.648;9.910;2024-03-02T01:49:38;59.25;;;31.13;;
31652;SDS011;18261;53.648;9.910;2024-03-02T01:52:06;57.30;;;29.83;;
31652;SDS011;18261;53.648;9.910;2024-03-02T01:54:32;59.17;;;31.77;;
31652;SDS011;18261;53.648;9.910;2024-03-02T01:56:57;68.32;;;34.30;;
31652;SDS011;18261;53.648;9.910;2024-03-02T01:59:23;66.07;;;33.13;;
31652;SDS011;18261;53.648;9.910;2024-03-02T02:01:49;68.43;;;33.13;;
31652;SDS011;18261;53.648;9.910;2024-03-02T02:04:15;67.20;;;33.97;;
31652;SDS011;18261;53.648;9.910;2024-03-02T02:06:40;61.97;;;33.17;;
31652;SDS011;18261;53.648;9.910;2024-03-02T02:09:08;70.10;;;34.92;;
31652;SDS011;18261;53.648;9.910;2024-03-02T02:11:34;63.42;;;35.55;;
31652;SDS011;18261;53.648;9.910;2024-03-02T02:14:00;70.78;;;36.15;;
31652;SDS011;18261;53.648;9.910;2024-03-02T02:16:25;71.65;;;35.28;;
31652;SDS011;18261;53.648;9.910;2024-03-02T02:18:51;71.30;;;36.90;;
31652;SDS011;18261;53.648;9.910;2024-03-02T02:21:16;71.38;;;35.60;;
31652;SDS011;18261;53.648;9.910;2024-03-02T02:23:42;71.57;;;36.92;;
31652;SDS011;18261;53.648;9.910;2024-03-02T02:26:11;75.57;;;37.60;;
31652;SDS011;18261;53.648;9.910;2024-03-02T02:28:37;75.00;;;37.60;;
31652;SDS011;18261;53.648;9.910;2024-03-02T02:31:03;75.03;;;39.13;;
31652;SDS011;18261;53.648;9.910;2024-03-02T02:33:28;79.57;;;38.63;;
31652;SDS011;18261;53.648;9.910;2024-03-02T02:35:54;77.85;;;41.30;;
31652;SDS011;18261;53.648;9.910;2024-03-02T02:38:20;80.82;;;40.10;;
31652;SDS011;18261;53.648;9.910;2024-03-02T02:40:46;78.65;;;39.83;;
31652;SDS011;18261;53.648;9.910;2024-03-02T02:43:11;83.47;;;40.17;;
31652;SDS011;18261;53.648;9.910;2024-03-02T02:45:37;87.55;;;41.42;;
31652;SDS011;18261;53.648;9.910;2024-03-02T02:48:02;80.63;;;40.38;;
31652;SDS011;18261;53.648;9.910;2024-03-02T02:50:29;86.05;;;42.22;;
31652;SDS011;18261;53.648;9.910;2024-03-02T02:52:54;85.05;;;41.67;;
31652;SDS011;18261;53.648;9.910;2024-03-02T02:55:20;85.45;;;41.50;;
31652;SDS011;18261;53.648;9.910;2024-03-02T02:57:46;83.40;;;41.08;;
31652;SDS011;18261;53.648;9.910;2024-03-02T03:00:13;84.35;;;43.25;;
31652;SDS011;18261;53.648;9.910;2024-03-02T03:02:40;95.07;;;41.95;;
31652;SDS011;18261;53.648;9.910;2024-03-02T03:05:07;89.03;;;42.75;;
31652;SDS011;18261;53.648;9.910;2024-03-02T03:07:33;85.25;;;42.47;;
31652;SDS011;18261;53.648;9.910;2024-03-02T03:10:00;86.13;;;41.70;;
31652;SDS011;18261;53.648;9.910;2024-03-02T03:12:26;85.55;;;43.25;;
31652;SDS011;18261;53.648;9.910;2024-03-02T03:14:52;86.93;;;43.08;;
31652;SDS011;18261;53.648;9.910;2024-03-02T03:17:17;86.35;;;43.25;;
31652;SDS011;18261;53.648;9.910;2024-03-02T03:19:43;85.60;;;42.97;;
31652;SDS011;18261;53.648;9.910;2024-03-02T03:22:08;94.18;;;43.10;;
31652;SDS011;18261;53.648;9.910;2024-03-02T03:24:34;85.95;;;41.05;;
31652;SDS011;18261;53.648;9.910;2024-03-02T03:27:00;91.47;;;44.75;;
31652;SDS011;18261;53.648;9.910;2024-03-02T03:29:26;87.57;;;42.75;;
31652;SDS011;18261;53.648;9.910;2024-03-02T03:31:51;83.65;;;42.42;;
31652;SDS011;18261;53.648;9.910;2024-03-02T03:34:17;79.85;;;41.58;;
31652;SDS011;18261;53.648;9.910;2024-03-02T03:36:43;82.45;;;41.50;;
31652;SDS011;18261;53.648;9.910;2024-03-02T03:39:08;78.55;;;41.85;;
31652;SDS011;18261;53.648;9.910;2024-03-02T03:41:34;82.00;;;40.35;;
31652;SDS011;18261;53.648;9.910;2024-03-02T03:43:59;84.35;;;41.83;;
31652;SDS011;18261;53.648;9.910;2024-03-02T03:46:25;81.00;;;41.03;;
31652;SDS011;18261;53.648;9.910;2024-03-02T03:48:50;89.13;;;42.38;;
31652;SDS011;18261;53.648;9.910;2024-03-02T03:51:16;82.20;;;40.65;;
31652;SDS011;18261;53.648;9.910;2024-03-02T03:53:42;83.65;;;41.65;;
31652;SDS011;18261;53.648;9.910;2024-03-02T03:56:10;91.07;;;41.63;;
31652;SDS011;18261;53.648;9.910;2024-03-02T03:58:36;79.65;;;41.38;;
31652;SDS011;18261;53.648;9.910;2024-03-02T04:01:01;83.30;;;41.20;;
31652;SDS011;18261;53.648;9.910;2024-03-02T04:03:27;81.93;;;40.28;;
31652;SDS011;18261;53.648;9.910;2024-03-02T04:05:52;74.70;;;39.95;;
31652;SDS011;18261;53.648;9.910;2024-03-02T04:08:18;78.65;;;40.47;;
31652;SDS011;18261;53.648;9.910;2024-03-02T04:10:44;77.82;;;40.58;;
31652;SDS011;18261;53.648;9.910;2024-03-02T04:13:09;80.38;;;41.05;;
31652;SDS011;18261;53.648;9.910;2024-03-02T04:15:35;76.22;;;41.13;;
31652;SDS011;18261;53.648;9.910;2024-03-02T04:18:00;82.80;;;41.53;;
31652;SDS011;18261;53.648;9.910;2024-03-02T04:20:26;79.53;;;38.90;;
31652;SDS011;18261;53.648;9.910;2024-03-02T04:22:52;75.95;;;38.83;;
31652;SDS011;18261;53.648;9.910;2024-03-02T04:25:17;80.15;;;42.25;;
31652;SDS011;18261;53.648;9.910;2024-03-02T04:27:44;78.80;;;40.53;;
31652;SDS011;18261;53.648;9.910;2024-03-02T04:30:10;78.50;;;40.92;;
31652;SDS011;18261;53.648;9.910;2024-03-02T04:32:36;76.97;;;39.55;;
31652;SDS011;18261;53.648;9.910;2024-03-02T04:35:01;74.60;;;40.13;;
31652;SDS011;18261;53.648;9.910;2024-03-02T04:37:27;81.35;;;39.97;;
31652;SDS011;18261;53.648;9.910;2024-03-02T04:39:53;82.25;;;38.97;;
31652;SDS011;18261;53.648;9.910;2024-03-02T04:42:19;79.75;;;39.47;;
31652;SDS011;18261;53.648;9.910;2024-03-02T04:44:44;69.13;;;36.60;;
31652;SDS011;18261;53.648;9.910;2024-03-02T04:47:10;76.50;;;38.35;;
31652;SDS011;18261;53.648;9.910;2024-03-02T04:49:36;75.03;;;38.38;;
31652;SDS011;18261;53.648;9.910;2024-03-02T04:52:01;75.80;;;38.83;;
31652;SDS011;18261;53.648;9.910;2024-03-02T04:54:27;69.40;;;38.33;;
31652;SDS011;18261;53.648;9.910;2024-03-02T04:56:53;73.40;;;36.13;;
31652;SDS011;18261;53.648;9.910;2024-03-02T04:59:18;74.78;;;37.78;;
31652;SDS011;18261;53.648;9.910;2024-03-02T05:01:45;72.55;;;36.50;;
31652;SDS011;18261;53.648;9.910;2024-03-02T05:04:12;73.53;;;37.20;;
31652;SDS011;18261;53.648;9.910;2024-03-02T05:06:40;70.05;;;37.08;;
31652;SDS011;18261;53.648;9.910;2024-03-02T05:09:09;76.38;;;38.20;;
31652;SDS011;18261;53.648;9.910;2024-03-02T05:11:35;75.75;;;38.03;;
31652;SDS011;18261;53.648;9.910;2024-03-02T05:14:04;72.75;;;37.08;;
31652;SDS011;18261;53.648;9.910;2024-03-02T05:16:33;76.28;;;38.13;;
31652;SDS011;18261;53.648;9.910;2024-03-02T05:19:16;78.95;;;37.60;;
31652;SDS011;18261;53.648;9.910;2024-03-02T05:21:42;69.43;;;36.33;;
31652;SDS011;18261;53.648;9.910;2024-03-02T05:24:08;73.45;;;37.05;;
31652;SDS011;18261;53.648;9.910;2024-03-02T05:26:34;71.47;;;37.42;;
31652;SDS011;18261;53.648;9.910;2024-03-02T05:28:59;76.00;;;38.08;;
31652;SDS011;18261;53.648;9.910;2024-03-02T05:31:25;74.65;;;37.30;;
31652;SDS011;18261;53.648;9.910;2024-03-02T05:33:51;72.35;;;37.05;;
31652;SDS011;18261;53.648;9.910;2024-03-02T05:36:17;66.68;;;35.38;;
31652;SDS011;18261;53.648;9.910;2024-03-02T05:38:43;67.47;;;36.60;;
31652;SDS011;18261;53.648;9.910;2024-03-02T05:41:08;68.70;;;36.08;;
31652;SDS011;18261;53.648;9.910;2024-03-02T05:43:34;76.68;;;37.13;;
31652;SDS011;18261;53.648;9.910;2024-03-02T05:45:59;69.90;;;36.33;;
31652;SDS011;18261;53.648;9.910;2024-03-02T05:48:25;72.25;;;37.75;;
31652;SDS011;18261;53.648;9.910;2024-03-02T05:50:51;68.65;;;37.53;;
31652;SDS011;18261;53.648;9.910;2024-03-02T05:53:16;73.93;;;37.80;;
31652;SDS011;18261;53.648;9.910;2024-03-02T05:55:42;73.05;;;35.72;;
31652;SDS011;18261;53.648;9.910;2024-03-02T05:58:10;70.32;;;36.30;;
31652;SDS011;18261;53.648;9.910;2024-03-02T06:01:02;68.10;;;35.22;;
31652;SDS011;18261;53.648;9.910;2024-03-02T06:03:28;64.57;;;35.22;;
31652;SDS011;18261;53.648;9.910;2024-03-02T06:05:54;69.07;;;35.67;;
31652;SDS011;18261;53.648;9.910;2024-03-02T06:08:20;72.00;;;35.03;;
31652;SDS011;18261;53.648;9.910;2024-03-02T06:10:45;67.93;;;34.13;;
31652;SDS011;18261;53.648;9.910;2024-03-02T06:13:11;67.28;;;35.83;;
31652;SDS011;18261;53.648;9.910;2024-03-02T06:15:36;63.00;;;34.53;;
31652;SDS011;18261;53.648;9.910;2024-03-02T06:18:02;68.55;;;36.17;;
31652;SDS011;18261;53.648;9.910;2024-03-02T06:20:28;63.20;;;34.78;;
31652;SDS011;18261;53.648;9.910;2024-03-02T06:22:56;67.07;;;34.67;;
31652;SDS011;18261;53.648;9.910;2024-03-02T06:25:21;67.22;;;34.65;;
31652;SDS011;18261;53.648;9.910;2024-03-02T06:27:47;72.35;;;35.38;;
31652;SDS011;18261;53.648;9.910;2024-03-02T06:30:12;62.97;;;34.00;;
31652;SDS011;18261;53.648;9.910;2024-03-02T06:32:38;70.75;;;34.33;;
31652;SDS011;18261;53.648;9.910;2024-03-02T06:35:04;63.65;;;34.58;;
31652;SDS011;18261;53.648;9.910;2024-03-02T06:37:32;64.10;;;35.05;;
31652;SDS011;18261;53.648;9.910;2024-03-02T06:39:58;65.43;;;34.58;;
31652;SDS011;18261;53.648;9.910;2024-03-02T06:42:23;68.80;;;35.90;;
31652;SDS011;18261;53.648;9.910;2024-03-02T06:44:49;71.00;;;34.97;;
31652;SDS011;18261;53.648;9.910;2024-03-02T06:47:15;67.55;;;35.17;;
31652;SDS011;18261;53.648;9.910;2024-03-02T06:49:41;68.05;;;36.08;;
31652;SDS011;18261;53.648;9.910;2024-03-02T06:52:08;68.07;;;34.83;;
31652;SDS011;18261;53.648;9.910;2024-03-02T06:54:33;67.90;;;34.47;;
31652;SDS011;18261;53.648;9.910;2024-03-02T06:56:59;66.18;;;34.70;;
31652;SDS011;18261;53.648;9.910;2024-03-02T06:59:25;65.70;;;34.28;;
31652;SDS011;18261;53.648;9.910;2024-03-02T07:01:51;66.90;;;35.22;;
31652;SDS011;18261;53.648;9.910;2024-03-02T07:04:16;74.85;;;34.80;;
31652;SDS011;18261;53.648;9.910;2024-03-02T07:06:42;69.22;;;34.78;;
31652;SDS011;18261;53.648;9.910;2024-03-02T07:09:07;66.57;;;33.65;;
31652;SDS011;18261;53.648;9.910;2024-03-02T07:11:36;61.97;;;33.17;;
31652;SDS011;18261;53.648;9.910;2024-03-02T07:14:01;66.07;;;32.75;;
31652;SDS011;18261;53.648;9.910;2024-03-02T07:16:27;61.30;;;32.33;;
31652;SDS011;18261;53.648;9.910;2024-03-02T07:18:54;63.38;;;33.50;;
31652;SDS011;18261;53.648;9.910;2024-03-02T07:21:21;63.17;;;34.85;;
31652;SDS011;18261;53.648;9.910;2024-03-02T07:23:48;67.45;;;34.28;;
31652;SDS011;18261;53.648;9.910;2024-03-02T07:26:14;65.50;;;33.13;;
31652;SDS011;18261;53.648;9.910;2024-03-02T07:31:14;61.63;;;32.22;;
31652;SDS011;18261;53.648;9.910;2024-03-02T07:33:40;61.00;;;32.60;;
31652;SDS011;18261;53.648;9.910;2024-03-02T07:36:06;63.08;;;32.63;;
31652;SDS011;18261;53.648;9.910;2024-03-02T07:38:33;56.00;;;30.50;;
31652;SDS011;18261;53.648;9.910;2024-03-02T07:41:00;56.13;;;30.63;;
31652;SDS011;18261;53.648;9.910;2024-03-02T07:43:26;62.95;;;31.75;;
31652;SDS011;18261;53.648;9.910;2024-03-02T07:45:57;60.05;;;31.85;;
31652;SDS011;18261;53.648;9.910;2024-03-02T07:48:27;59.45;;;30.50;;
31652;SDS011;18261;53.648;9.910;2024-03-02T07:50:55;54.67;;;30.23;;
31652;SDS011;18261;53.648;9.910;2024-03-02T07:53:20;54.22;;;30.85;;
31652;SDS011;18261;53.648;9.910;2024-03-02T07:55:46;60.70;;;31.65;;
31652;SDS011;18261;53.648;9.910;2024-03-02T07:58:12;53.40;;;30.33;;
31652;SDS011;18261;53.648;9.910;2024-03-02T08:00:41;54.45;;;28.75;;
31652;SDS011;18261;53.648;9.910;2024-03-02T08:03:07;60.53;;;30.88;;
31652;SDS011;18261;53.648;9.910;2024-03-02T08:05:36;55.17;;;30.63;;
31652;SDS011;18261;53.648;9.910;2024-03-02T08:08:02;56.00;;;30.05;;
31652;SDS011;18261;53.648;9.910;2024-03-02T08:10:27;60.03;;;32.13;;
31652;SDS011;18261;53.648;9.910;2024-03-02T08:12:53;60.92;;;29.67;;
31652;SDS011;18261;53.648;9.910;2024-03-02T08:15:18;62.47;;;29.73;;
31652;SDS011;18261;53.648;9.910;2024-03-02T08:17:44;55.08;;;30.27;;
31652;SDS011;18261;53.648;9.910;2024-03-02T08:20:13;55.45;;;29.30;;
31652;SDS011;18261;53.648;9.910;2024-03-02T08:22:39;58.80;;;29.67;;
31652;SDS011;18261;53.648;9.910;2024-03-02T08:25:08;60.40;;;29.52;;
31652;SDS011;18261;53.648;9.910;2024-03-02T08:27:34;54.88;;;28.98;;
31652;SDS011;18261;53.648;9.910;2024-03-02T08:30:00;53.50;;;29.65;;
31652;SDS011;18261;53.648;9.910;2024-03-02T08:32:25;54.55;;;30.58;;
31652;SDS011;18261;53.648;9.910;2024-03-02T08:34:52;61.53;;;31.50;;
31652;SDS011;18261;53.648;9.910;2024-03-02T08:37:18;59.95;;;30.52;;
31652;SDS011;18261;53.648;9.910;2024-03-02T08:39:44;53.17;;;28.85;;
31652;SDS011;18261;53.648;9.910;2024-03-02T08:42:10;55.65;;;29.70;;
31652;SDS011;18261;53.648;9.910;2024-03-02T08:44:36;63.65;;;29.35;;
31652;SDS011;18261;53.648;9.910;2024-03-02T08:47:02;55.47;;;29.90;;
31652;SDS011;18261;53.648;9.910;2024-03-02T08:49:28;53.15;;;28.55;;
31652;SDS011;18261;53.648;9.910;2024-03-02T08:51:56;56.75;;;29.60;;
31652;SDS011;18261;53.648;9.910;2024-03-02T08:54:22;52.58;;;28.70;;
31652;SDS011;18261;53.648;9.910;2024-03-02T08:56:48;51.67;;;26.80;;
31652;SDS011;18261;53.648;9.910;2024-03-02T08:59:14;59.08;;;29.48;;
31652;SDS011;18261;53.648;9.910;2024-03-02T09:01:40;58.50;;;30.35;;
31652;SDS011;18261;53.648;9.910;2024-03-02T09:04:06;50.17;;;27.30;;
31652;SDS011;18261;53.648;9.910;2024-03-02T09:06:33;55.80;;;28.23;;
31652;SDS011;18261;53.648;9.910;2024-03-02T09:08:59;49.13;;;26.92;;
31652;SDS011;18261;53.648;9.910;2024-03-02T09:11:25;43.42;;;24.65;;
31652;SDS011;18261;53.648;9.910;2024-03-02T09:13:51;47.58;;;26.20;;
31652;SDS011;18261;53.648;9.910;2024-03-02T09:16:18;54.95;;;26.40;;
31652;SDS011;18261;53.648;9.910;2024-03-02T09:18:44;42.85;;;24.60;;
31652;SDS011;18261;53.648;9.910;2024-03-02T09:21:10;48.17;;;24.27;;
31652;SDS011;18261;53.648;9.910;2024-03-02T09:23:35;43.30;;;24.58;;
31652;SDS011;18261;53.648;9.910;2024-03-02T09:26:01;46.45;;;25.10;;
31652;SDS011;18261;53.648;9.910;2024-03-02T09:28:28;42.35;;;23.77;;
31652;SDS011;18261;53.648;9.910;2024-03-02T09:30:53;49.90;;;26.42;;
31652;SDS011;18261;53.648;9.910;2024-03-02T09:33:19;48.70;;;25.65;;
31652;SDS011;18261;53.648;9.910;2024-03-02T09:35:45;42.92;;;23.88;;
31652;SDS011;18261;53.648;9.910;2024-03-02T09:38:10;77.32;;;37.20;;
31652;SDS011;18261;53.648;9.910;2024-03-02T09:40:36;43.60;;;24.92;;
31652;SDS011;18261;53.648;9.910;2024-03-02T09:43:02;42.03;;;22.95;;
31652;SDS011;18261;53.648;9.910;2024-03-02T09:45:28;40.80;;;23.35;;
31652;SDS011;18261;53.648;9.910;2024-03-02T09:47:57;38.25;;;20.50;;
31652;SDS011;18261;53.648;9.910;2024-03-02T09:50:22;37.78;;;21.38;;
31652;SDS011;18261;53.648;9.910;2024-03-02T09:52:49;35.75;;;21.23;;
31652;SDS011;18261;53.648;9.910;2024-03-02T09:55:15;34.97;;;20.67;;
31652;SDS011;18261;53.648;9.910;2024-03-02T09:57:43;33.47;;;20.20;;
31652;SDS011;18261;53.648;9.910;2024-03-02T10:00:09;32.15;;;19.75;;
31652;SDS011;18261;53.648;9.910;2024-03-02T10:02:39;33.17;;;20.38;;
31652;SDS011;18261;53.648;9.910;2024-03-02T10:05:11;32.33;;;19.30;;
31652;SDS011;18261;53.648;9.910;2024-03-02T10:07:57;31.75;;;19.58;;
31652;SDS011;18261;53.648;9.910;2024-03-02T10:10:34;34.70;;;19.30;;
31652;SDS011;18261;53.648;9.910;2024-03-02T10:13:05;30.67;;;18.40;;
31652;SDS011;18261;53.648;9.910;2024-03-02T10:15:32;30.75;;;18.10;;
31652;SDS011;18261;53.648;9.910;2024-03-02T10:17:58;28.73;;;17.83;;
31652;SDS011;18261;53.648;9.910;2024-03-02T10:20:24;35.85;;;19.42;;
31652;SDS011;18261;53.648;9.910;2024-03-02T10:22:51;32.78;;;18.00;;
31652;SDS011;18261;53.648;9.910;2024-03-02T10:25:32;32.25;;;18.63;;
31652;SDS011;18261;53.648;9.910;2024-03-02T10:27:58;28.40;;;18.10;;
31652;SDS011;18261;53.648;9.910;2024-03-02T10:30:25;29.48;;;18.02;;
31652;SDS011;18261;53.648;9.910;2024-03-02T10:32:59;31.85;;;18.30;;
31652;SDS011;18261;53.648;9.910;2024-03-02T10:35:29;34.55;;;18.77;;
31652;SDS011;18261;53.648;9.910;2024-03-02T10:37:58;34.25;;;19.27;;
31652;SDS011;18261;53.648;9.910;2024-03-02T10:40:26;41.03;;;19.55;;
31652;SDS011;18261;53.648;9.910;2024-03-02T10:43:01;36.90;;;19.90;;
31652;SDS011;18261;53.648;9.910;2024-03-02T10:45:56;30.90;;;18.52;;
31652;SDS011;18261;53.648;9.910;2024-03-02T10:48:23;34.00;;;18.48;;
31652;SDS011;18261;53.648;9.910;2024-03-02T10:50:50;35.20;;;18.92;;
31652;SDS011;18261;53.648;9.910;2024-03-02T10:53:16;31.35;;;18.10;;
31652;SDS011;18261;53.648;9.910;2024-03-02T10:55:42;31.98;;;17.98;;
31652;SDS011;18261;53.648;9.910;2024-03-02T10:58:07;30.00;;;17.92;;
31652;SDS011;18261;53.648;9.910;2024-03-02T11:00:43;30.73;;;17.73;;
31652;SDS011;18261;53.648;9.910;2024-03-02T11:03:11;27.60;;;17.38;;
31652;SDS011;18261;53.648;9.910;2024-03-02T11:05:43;36.15;;;18.45;;
31652;SDS011;18261;53.648;9.910;2024-03-02T11:08:13;33.92;;;18.02;;
31652;SDS011;18261;53.648;9.910;2024-03-02T11:10:41;32.20;;;17.77;;
31652;SDS011;18261;53.648;9.910;2024-03-02T11:13:16;37.35;;;19.13;;
31652;SDS011;18261;53.648;9.910;2024-03-02T11:16:16;34.35;;;18.75;;
31652;SDS011;18261;53.648;9.910;2024-03-02T11:19:07;33.75;;;19.55;;
31652;SDS011;18261;53.648;9.910;2024-03-02T11:21:36;30.23;;;17.80;;
31652;SDS011;18261;53.648;9.910;2024-03-02T11:26:50;27.65;;;16.23;;
31652;SDS011;18261;53.648;9.910;2024-03-02T11:32:00;29.15;;;17.52;;
31652;SDS011;18261;53.648;9.910;2024-03-02T11:34:28;33.10;;;17.83;;
31652;SDS011;18261;53.648;9.910;2024-03-02T11:36:56;28.58;;;17.23;;
31652;SDS011;18261;53.648;9.910;2024-03-02T11:39:24;31.52;;;16.25;;
31652;SDS011;18261;53.648;9.910;2024-03-02T11:41:52;28.50;;;15.35;;
31652;SDS011;18261;53.648;9.910;2024-03-02T11:44:18;35.95;;;16.60;;
31652;SDS011;18261;53.648;9.910;2024-03-02T11:46:45;28.60;;;16.05;;
31652;SDS011;18261;53.648;9.910;2024-03-02T11:49:15;32.50;;;16.80;;
31652;SDS011;18261;53.648;9.910;2024-03-02T11:51:50;29.55;;;16.73;;
31652;SDS011;18261;53.648;9.910;2024-03-02T11:54:25;32.58;;;15.75;;
31652;SDS011;18261;53.648;9.910;2024-03-02T11:56:53;29.20;;;15.98;;
31652;SDS011;18261;53.648;9.910;2024-03-02T11:59:19;28.40;;;15.45;;
31652;SDS011;18261;53.648;9.910;2024-03-02T12:01:45;28.85;;;15.15;;
31652;SDS011;18261;53.648;9.910;2024-03-02T12:04:13;28.40;;;15.32;;
31652;SDS011;18261;53.648;9.910;2024-03-02T12:06:39;34.75;;;17.15;;
31652;SDS011;18261;53.648;9.910;2024-03-02T12:09:04;22.20;;;13.80;;
31652;SDS011;18261;53.648;9.910;2024-03-02T12:11:30;30.10;;;14.88;;
31652;SDS011;18261;53.648;9.910;2024-03-02T12:13:55;25.77;;;14.43;;
31652;SDS011;18261;53.648;9.910;2024-03-02T12:16:26;25.80;;;13.20;;
31652;SDS011;18261;53.648;9.910;2024-03-02T12:18:51;21.98;;;12.98;;
31652;SDS011;18261;53.648;9.910;2024-03-02T12:21:17;24.40;;;13.25;;
31652;SDS011;18261;53.648;9.910;2024-03-02T12:23:43;25.48;;;13.65;;
31652;SDS011;18261;53.648;9.910;2024-03-02T12:26:09;22.45;;;12.57;;
31652;SDS011;18261;53.648;9.910;2024-03-02T12:28:34;22.48;;;12.30;;
31652;SDS011;18261;53.648;9.910;2024-03-02T12:31:00;24.65;;;12.45;;
31652;SDS011;18261;53.648;9.910;2024-03-02T12:33:26;23.33;;;12.45;;
31652;SDS011;18261;53.648;9.910;2024-03-02T12:35:52;22.70;;;11.75;;
31652;SDS011;18261;53.648;9.910;2024-03-02T12:38:18;23.27;;;12.43;;
31652;SDS011;18261;53.648;9.910;2024-03-02T12:40:44;21.02;;;11.02;;
31652;SDS011;18261;53.648;9.910;2024-03-02T12:43:12;23.95;;;11.10;;
31652;SDS011;18261;53.648;9.910;2024-03-02T12:45:38;20.42;;;10.95;;
31652;SDS011;18261;53.648;9.910;2024-03-02T12:48:04;20.17;;;11.00;;
31652;SDS011;18261;53.648;9.910;2024-03-02T12:50:30;16.38;;;10.00;;
31652;SDS011;18261;53.648;9.910;2024-03-02T12:52:56;21.85;;;11.13;;
31652;SDS011;18261;53.648;9.910;2024-03-02T12:55:22;20.58;;;10.65;;
31652;SDS011;18261;53.648;9.910;2024-03-02T12:57:49;20.88;;;10.18;;
31652;SDS011;18261;53.648;9.910;2024-03-02T13:00:18;19.48;;;10.48;;
31652;SDS011;18261;53.648;9.910;2024-03-02T13:03:24;19.40;;;10.73;;
31652;SDS011;18261;53.648;9.910;2024-03-02T13:05:50;17.27;;;10.15;;
31652;SDS011;18261;53.648;9.910;2024-03-02T13:08:16;16.33;;;9.90;;
31652;SDS011;18261;53.648;9.910;2024-03-02T13:10:42;18.85;;;10.07;;
31652;SDS011;18261;53.648;9.910;2024-03-02T13:13:08;21.20;;;10.20;;
31652;SDS011;18261;53.648;9.910;2024-03-02T13:15:33;20.02;;;9.77;;
31652;SDS011;18261;53.648;9.910;2024-03-02T13:17:59;21.25;;;10.80;;
31652;SDS011;18261;53.648;9.910;2024-03-02T13:20:29;20.00;;;9.95;;
31652;SDS011;18261;53.648;9.910;2024-03-02T13:22:58;18.77;;;10.50;;
31652;SDS011;18261;53.648;9.910;2024-03-02T13:25:23;19.00;;;10.77;;
31652;SDS011;18261;53.648;9.910;2024-03-02T13:27:49;20.05;;;10.15;;
31652;SDS011;18261;53.648;9.910;2024-03-02T13:30:16;20.55;;;9.95;;
31652;SDS011;18261;53.648;9.910;2024-03-02T13:32:41;24.05;;;10.13;;
31652;SDS011;18261;53.648;9.910;2024-03-02T13:35:07;18.67;;;10.20;;
31652;SDS011;18261;53.648;9.910;2024-03-02T13:37:39;21.23;;;10.50;;
31652;SDS011;18261;53.648;9.910;2024-03-02T13:40:04;19.65;;;9.75;;
31652;SDS011;18261;53.648;9.910;2024-03-02T13:42:31;20.08;;;9.98;;
31652;SDS011;18261;53.648;9.910;2024-03-02T13:44:56;17.00;;;9.57;;
31652;SDS011;18261;53.648;9.910;2024-03-02T13:47:22;24.02;;;9.77;;
31652;SDS011;18261;53.648;9.910;2024-03-02T13:49:48;17.45;;;10.05;;
31652;SDS011;18261;53.648;9.910;2024-03-02T13:52:14;16.98;;;10.38;;
31652;SDS011;18261;53.648;9.910;2024-03-02T13:54:42;17.40;;;10.93;;
31652;SDS011;18261;53.648;9.910;2024-03-02T13:57:09;17.00;;;10.18;;
31652;SDS011;18261;53.648;9.910;2024-03-02T13:59:36;15.38;;;9.75;;
31652;SDS011;18261;53.648;9.910;2024-03-02T14:02:02;17.52;;;9.98;;
31652;SDS011;18261;53.648;9.910;2024-03-02T14:04:34;17.05;;;9.95;;
31652;SDS011;18261;53.648;9.910;2024-03-02T14:07:00;22.60;;;11.02;;
31652;SDS011;18261;53.648;9.910;2024-03-02T14:09:26;24.70;;;10.73;;
31652;SDS011;18261;53.648;9.910;2024-03-02T14:11:53;18.33;;;11.07;;
31652;SDS011;18261;53.648;9.910;2024-03-02T14:14:19;17.60;;;11.15;;
31652;SDS011;18261;53.648;9.910;2024-03-02T14:16:45;18.88;;;11.43;;
31652;SDS011;18261;53.648;9.910;2024-03-02T14:19:11;20.85;;;11.40;;
31652;SDS011;18261;53.648;9.910;2024-03-02T14:21:37;19.95;;;12.13;;
31652;SDS011;18261;53.648;9.910;2024-03-02T14:24:04;19.45;;;11.48;;
31652;SDS011;18261;53.648;9.910;2024-03-02T14:26:30;18.50;;;11.00;;
31652;SDS011;18261;53.648;9.910;2024-03-02T14:28:56;19.55;;;10.95;;
31652;SDS011;18261;53.648;9.910;2024-03-02T14:31:21;19.35;;;11.57;;
31652;SDS011;18261;53.648;9.910;2024-03-02T14:33:47;19.67;;;11.60;;